Time;durP1;ratioP1;P1;durP2;ratioP2;P2;SDS_P1;SDS_P2;PMS_P1;PMS_P2;Temp;Humidity;BMP_temperature;BMP_pressure;BME280_temperature;BME280_humidity;BME280_pressure;Samples;Min_cycle;Max_cycle;Signal;HPM_P1;HPM_P2
2022/07/30 00:00:50;;;;;;;4.43;1.42;;;10.00;99.90;;;;;;5099813;28;20361;-76
2022/07/30 00:03:17;;;;;;;3.30;1.33;;;10.10;99.90;;;;;;5095962;28;20376;-74
2022/07/30 00:05:44;;;;;;;7.13;1.38;;;10.20;99.90;;;;;;5103696;28;20394;-76
2022/07/30 00:08:11;;;;;;;6.47;1.20;;;10.20;99.90;;;;;;5099705;28;20368;-78
2022/07/30 00:10:39;;;;;;;3.22;1.17;;;10.30;99.90;;;;;;5095101;28;20372;-76
2022/07/30 00:13:06;;;;;;;3.72;1.10;;;10.50;99.90;;;;;;5093099;28;20392;-75
2022/07/30 00:15:33;;;;;;;4.07;1.20;;;10.80;99.80;;;;;;5091846;28;20372;-75
2022/07/30 00:18:01;;;;;;;5.30;1.20;;;10.90;99.00;;;;;;5092341;28;20774;-75
2022/07/30 00:20:28;;;;;;;2.60;1.20;;;11.00;98.10;;;;;;5092177;28;20760;-75
2022/07/30 00:22:56;;;;;;;4.28;1.02;;;11.00;99.00;;;;;;5091822;28;20380;-76
2022/07/30 00:25:23;;;;;;;2.47;1.00;;;11.10;98.90;;;;;;5090379;28;20736;-77
2022/07/30 00:27:50;;;;;;;4.88;1.20;;;11.20;96.70;;;;;;5091602;28;20368;-76
2022/07/30 00:30:17;;;;;;;3.17;1.20;;;11.20;96.90;;;;;;5091485;28;20372;-75
2022/07/30 00:32:44;;;;;;;4.82;1.40;;;11.20;96.80;;;;;;5092087;28;20403;-74
2022/07/30 00:35:11;;;;;;;3.05;1.30;;;11.10;97.90;;;;;;5091677;28;20732;-77
2022/07/30 00:37:38;;;;;;;4.70;1.38;;;11.10;98.00;;;;;;5091550;28;20402;-76
2022/07/30 00:40:08;;;;;;;3.90;1.60;;;11.10;97.50;;;;;;5091650;28;20376;-76
2022/07/30 00:42:43;;;;;;;4.72;1.20;;;11.30;98.60;;;;;;5092912;28;20437;-76
2022/07/30 00:45:11;;;;;;;3.97;1.10;;;11.60;98.30;;;;;;5095568;28;20371;-78
2022/07/30 00:47:39;;;;;;;5.63;0.90;;;11.70;96.00;;;;;;5093754;28;20387;-77
2022/07/30 00:50:09;;;;;;;5.32;1.73;;;11.70;96.90;;;;;;5095173;28;20844;-82
2022/07/30 00:52:37;;;;;;;5.40;1.20;;;11.90;97.30;;;;;;5093858;28;20396;-79
2022/07/30 00:55:06;;;;;;;10.88;4.60;;;12.10;95.30;;;;;;5094251;28;20381;-81
2022/07/30 00:57:33;;;;;;;3.75;1.50;;;12.00;94.50;;;;;;5095619;28;20369;-82
2022/07/30 01:00:00;;;;;;;3.85;1.05;;;12.00;95.20;;;;;;5095231;28;20369;-82
2022/07/30 01:02:27;;;;;;;3.42;0.93;;;12.10;94.00;;;;;;5095052;28;20383;-78
2022/07/30 01:04:54;;;;;;;3.10;1.05;;;12.30;91.10;;;;;;5095272;28;20407;-82
2022/07/30 01:07:22;;;;;;;3.92;1.00;;;12.20;90.20;;;;;;5095051;28;20385;-82
2022/07/30 01:09:49;;;;;;;3.20;0.90;;;12.20;90.00;;;;;;5093728;28;20422;-82
2022/07/30 01:12:20;;;;;;;5.10;1.20;;;12.20;90.70;;;;;;5094614;28;20396;-78
2022/07/30 01:14:48;;;;;;;5.95;1.30;;;12.30;90.70;;;;;;5094766;28;20716;-81
2022/07/30 01:17:15;;;;;;;8.05;1.10;;;12.30;90.40;;;;;;5094795;28;20373;-82
2022/07/30 01:19:51;;;;;;;5.25;1.10;;;12.40;89.10;;;;;;5094847;28;20873;-80
2022/07/30 01:22:40;;;;;;;6.50;1.23;;;12.50;90.40;;;;;;5094664;28;20902;-78
2022/07/30 01:25:30;;;;;;;9.17;1.30;;;12.60;88.60;;;;;;5094746;28;20400;-83
2022/07/30 01:28:10;;;;;;;8.32;1.23;;;12.90;87.40;;;;;;5095099;28;20461;-82
2022/07/30 01:30:41;;;;;;;6.85;1.17;;;13.20;85.20;;;;;;5095102;28;20372;-79
2022/07/30 01:33:12;;;;;;;3.55;0.95;;;13.30;82.90;;;;;;5094642;28;20442;-82
2022/07/30 01:35:42;;;;;;;5.28;0.90;;;13.50;78.60;;;;;;5093411;28;20365;-79
2022/07/30 01:38:11;;;;;;;3.63;0.88;;;13.50;76.80;;;;;;5094865;28;20845;-79
2022/07/30 01:40:40;;;;;;;2.90;0.80;;;13.50;77.60;;;;;;5098329;28;20412;-82
2022/07/30 01:43:08;;;;;;;3.45;1.00;;;13.50;71.30;;;;;;5098235;28;20388;-78
2022/07/30 01:45:36;;;;;;;5.20;0.90;;;13.40;73.20;;;;;;5093477;28;20419;-79
2022/07/30 01:48:08;;;;;;;5.60;1.00;;;13.30;73.90;;;;;;5094783;28;20372;-83
2022/07/30 01:50:36;;;;;;;2.33;0.90;;;13.40;70.60;;;;;;5095627;28;20662;-79
2022/07/30 01:53:04;;;;;;;2.58;1.00;;;13.40;70.70;;;;;;5094236;28;20404;-81
2022/07/30 01:55:39;;;;;;;2.67;0.90;;;13.50;70.30;;;;;;5093139;28;20469;-78
2022/07/30 01:58:06;;;;;;;3.72;0.90;;;13.40;71.50;;;;;;5094103;28;20364;-82
2022/07/30 02:00:37;;;;;;;4.00;0.97;;;13.50;71.30;;;;;;5094220;28;20376;-79
2022/07/30 02:03:08;;;;;;;5.72;1.00;;;13.80;69.30;;;;;;5093819;28;20364;-77
2022/07/30 02:05:37;;;;;;;2.60;0.97;;;14.20;68.30;;;;;;5093908;28;20410;-79
2022/07/30 02:08:38;;;;;;;2.92;0.80;;;14.40;67.20;;;;;;5093864;28;20844;-81
2022/07/30 02:11:08;;;;;;;3.60;0.93;;;14.40;67.00;;;;;;5092649;28;20387;-80
2022/07/30 02:13:52;;;;;;;53.47;6.47;;;14.50;65.00;;;;;;5093580;28;20400;-79
2022/07/30 02:16:33;;;;;;;5.82;1.10;;;14.30;67.00;;;;;;5093771;28;20388;-81
2022/07/30 02:19:14;;;;;;;2.22;0.80;;;14.30;69.10;;;;;;5093935;28;20375;-80
2022/07/30 02:22:00;;;;;;;3.20;0.90;;;14.40;63.70;;;;;;5093313;28;20886;-82
2022/07/30 02:24:30;;;;;;;3.08;0.80;;;14.50;64.70;;;;;;5093732;28;20381;-81
2022/07/30 02:27:07;;;;;;;5.05;1.73;;;14.50;62.20;;;;;;5093303;28;20427;-81
2022/07/30 02:29:36;;;;;;;2.72;0.73;;;14.50;61.70;;;;;;5092504;28;20376;-79
2022/07/30 02:32:09;;;;;;;3.33;0.75;;;14.40;61.20;;;;;;5093305;28;20404;-81
2022/07/30 02:34:39;;;;;;;2.50;0.80;;;14.40;60.60;;;;;;5093387;28;20365;-81
2022/07/30 02:37:11;;;;;;;1.80;0.80;;;14.30;61.30;;;;;;5093562;28;20712;-81
2022/07/30 02:39:41;;;;;;;4.18;0.90;;;14.40;58.80;;;;;;5093211;28;20392;-81
2022/07/30 02:42:12;;;;;;;1.80;0.80;;;14.50;58.80;;;;;;5093576;28;20757;-79
2022/07/30 02:44:43;;;;;;;2.05;1.15;;;14.50;61.70;;;;;;5093746;28;20417;-80
2022/07/30 02:47:12;;;;;;;2.72;1.00;;;14.60;62.30;;;;;;5093351;28;20368;-82
2022/07/30 02:49:41;;;;;;;3.17;1.10;;;14.90;61.20;;;;;;5093058;28;20787;-80
2022/07/30 02:52:12;;;;;;;2.50;0.90;;;15.00;62.20;;;;;;5093329;28;20388;-81
2022/07/30 02:54:41;;;;;;;1.95;0.80;;;15.10;61.40;;;;;;5093514;28;20387;-82
2022/07/30 02:57:09;;;;;;;2.70;1.50;;;15.00;59.30;;;;;;5092723;28;20360;-82
2022/07/30 02:59:40;;;;;;;2.92;1.23;;;14.80;59.30;;;;;;5093356;28;20778;-82
2022/07/30 03:02:10;;;;;;;3.17;0.90;;;14.70;60.40;;;;;;5093197;28;20369;-82
2022/07/30 03:04:39;;;;;;;1.67;0.80;;;14.80;59.20;;;;;;5093068;28;20875;-83
2022/07/30 03:07:07;;;;;;;3.05;1.00;;;14.70;60.00;;;;;;5092493;28;20368;-83
2022/07/30 03:09:38;;;;;;;3.08;1.02;;;14.80;60.90;;;;;;5093122;28;20900;-83
2022/07/30 03:12:07;;;;;;;2.45;0.90;;;15.00;61.40;;;;;;5092750;28;20388;-83
2022/07/30 03:14:34;;;;;;;5.32;1.15;;;15.10;60.40;;;;;;5092809;28;20381;-84
2022/07/30 03:17:03;;;;;;;2.75;0.93;;;15.10;61.80;;;;;;5093286;28;20406;-84
2022/07/30 03:19:36;;;;;;;2.03;0.90;;;15.30;61.50;;;;;;5092673;28;20383;-82
2022/07/30 03:22:06;;;;;;;8.50;1.13;;;15.40;59.70;;;;;;5092722;28;20356;-81
2022/07/30 03:24:34;;;;;;;5.97;1.00;;;15.60;60.30;;;;;;5092496;28;20369;-82
2022/07/30 03:27:02;;;;;;;2.95;0.95;;;15.80;61.80;;;;;;5092450;28;20376;-81
2022/07/30 03:29:31;;;;;;;2.63;0.80;;;16.20;59.60;;;;;;5092591;28;20405;-81
2022/07/30 03:31:58;;;;;;;2.85;0.80;;;16.20;58.40;;;;;;5092389;28;20380;-80
2022/07/30 03:34:27;;;;;;;4.43;0.95;;;16.10;57.70;;;;;;5057838;28;20383;-80
2022/07/30 03:36:54;;;;;;;2.70;0.80;;;16.20;57.30;;;;;;5092842;28;20406;-81
2022/07/30 03:39:22;;;;;;;2.22;0.80;;;15.90;60.40;;;;;;5092640;28;20368;-81
2022/07/30 03:41:50;;;;;;;3.28;0.88;;;15.80;58.20;;;;;;5092280;28;20372;-80
2022/07/30 03:44:18;;;;;;;2.75;0.95;;;15.90;58.90;;;;;;5092446;28;20718;-81
2022/07/30 03:46:45;;;;;;;2.35;0.93;;;16.70;59.40;;;;;;5092571;28;20847;-81
2022/07/30 03:49:13;;;;;;;4.18;0.95;;;17.90;55.90;;;;;;5092365;28;20373;-81
2022/07/30 03:51:41;;;;;;;2.97;0.93;;;19.10;54.00;;;;;;5092452;28;20391;-81
2022/07/30 03:54:10;;;;;;;2.80;1.10;;;19.60;52.80;;;;;;5092393;28;20806;-81
2022/07/30 03:56:38;;;;;;;2.78;0.80;;;20.10;51.60;;;;;;5092063;28;20467;-81
2022/07/30 03:59:05;;;;;;;1.30;0.70;;;20.30;51.20;;;;;;5092233;28;20376;-81
2022/07/30 04:01:32;;;;;;;3.28;1.00;;;20.60;50.30;;;;;;5092212;28;20724;-81
2022/07/30 04:04:10;;;;;;;2.33;0.85;;;20.90;50.30;;;;;;5092166;28;20376;-81
2022/07/30 04:06:41;;;;;;;2.25;1.00;;;21.50;49.20;;;;;;5092073;28;20732;-81
2022/07/30 04:09:10;;;;;;;3.00;1.20;;;22.20;47.30;;;;;;5092085;28;20372;-81
2022/07/30 04:11:37;;;;;;;3.97;0.98;;;21.90;49.00;;;;;;5091929;28;20394;-82
2022/07/30 04:14:04;;;;;;;2.30;1.00;;;20.90;49.20;;;;;;5092111;28;20395;-81
2022/07/30 04:16:47;;;;;;;2.35;1.00;;;20.20;49.80;;;;;;5091955;28;20384;-80
2022/07/30 04:19:27;;;;;;;4.50;1.10;;;19.50;51.50;;;;;;5095833;28;20709;-80
2022/07/30 04:21:56;;;;;;;2.22;0.88;;;20.30;50.40;;;;;;5094076;28;20809;-81
2022/07/30 04:24:26;;;;;;;2.05;0.77;;;21.10;49.50;;;;;;5095670;28;20368;-82
2022/07/30 04:26:54;;;;;;;2.43;0.80;;;21.00;48.60;;;;;;5095438;28;20376;-80
2022/07/30 04:29:21;;;;;;;2.80;0.70;;;21.30;48.50;;;;;;5095572;28;20375;-81
2022/07/30 04:31:48;;;;;;;1.30;0.60;;;22.30;47.70;;;;;;5098246;28;20368;-80
2022/07/30 04:34:15;;;;;;;1.53;0.53;;;23.30;45.80;;;;;;5098215;28;20388;-81
2022/07/30 04:36:43;;;;;;;2.17;0.80;;;23.60;45.20;;;;;;5096031;28;20368;-81
2022/07/30 04:39:11;;;;;;;2.58;0.88;;;23.70;45.30;;;;;;5095796;28;20755;-81
2022/07/30 04:41:38;;;;;;;2.67;1.10;;;23.30;44.90;;;;;;5095343;28;20373;-81
2022/07/30 04:44:06;;;;;;;3.90;1.20;;;23.00;44.60;;;;;;5095174;28;20400;-81
2022/07/30 04:46:36;;;;;;;1.67;0.80;;;22.80;45.10;;;;;;5094568;28;20408;-81
2022/07/30 04:49:03;;;;;;;4.00;0.80;;;23.30;45.40;;;;;;5095059;28;20368;-81
2022/07/30 04:51:35;;;;;;;1.45;0.65;;;23.80;44.20;;;;;;5095147;28;20377;-81
2022/07/30 04:54:08;;;;;;;1.80;0.60;;;23.40;44.30;;;;;;5095398;28;20379;-81
2022/07/30 04:56:35;;;;;;;2.22;0.68;;;22.80;44.30;;;;;;5095020;28;20373;-80
2022/07/30 04:59:04;;;;;;;2.70;0.70;;;22.40;46.00;;;;;;5095189;28;20372;-81
2022/07/30 05:01:34;;;;;;;1.42;0.70;;;22.60;46.00;;;;;;5094959;28;20373;-81
2022/07/30 05:04:02;;;;;;;3.28;0.88;;;22.80;44.50;;;;;;5094920;28;20807;-83
2022/07/30 05:06:32;;;;;;;2.22;1.00;;;22.20;45.00;;;;;;5095180;28;20378;-82
2022/07/30 05:08:59;;;;;;;1.65;0.70;;;21.80;45.60;;;;;;5094967;28;20372;-80
2022/07/30 05:11:26;;;;;;;1.13;0.47;;;21.40;46.60;;;;;;5095047;28;20372;-81
2022/07/30 05:13:53;;;;;;;1.60;0.60;;;20.40;48.40;;;;;;5093343;28;20411;-82
2022/07/30 05:16:23;;;;;;;1.30;0.60;;;19.70;48.90;;;;;;5094814;28;20421;-82
2022/07/30 05:18:51;;;;;;;1.63;0.85;;;19.20;51.20;;;;;;5093862;28;20752;-81
2022/07/30 05:21:18;;;;;;;3.13;0.90;;;19.20;51.20;;;;;;5095033;28;20376;-83
2022/07/30 05:23:45;;;;;;;1.63;1.00;;;19.00;51.20;;;;;;5095481;28;20518;-82
2022/07/30 05:26:12;;;;;;;1.13;0.73;;;18.30;52.60;;;;;;5098037;28;20372;-79
2022/07/30 05:28:39;;;;;;;3.10;0.90;;;18.00;52.90;;;;;;5098100;28;20377;-80
2022/07/30 05:31:06;;;;;;;1.88;0.88;;;17.70;53.40;;;;;;5094983;28;20379;-81
2022/07/30 05:33:36;;;;;;;3.30;0.93;;;17.60;54.40;;;;;;5097576;28;20396;-82
2022/07/30 05:36:04;;;;;;;2.70;1.10;;;17.60;55.40;;;;;;5107001;28;20364;-80
2022/07/30 05:38:31;;;;;;;2.40;1.20;;;17.80;55.50;;;;;;5111528;28;20377;-80
2022/07/30 05:40:58;;;;;;;2.15;1.00;;;18.10;54.40;;;;;;5109415;28;20365;-80
2022/07/30 05:43:25;;;;;;;2.00;0.98;;;18.10;54.10;;;;;;5112643;28;20534;-80
2022/07/30 05:45:53;;;;;;;1.80;0.70;;;17.80;54.60;;;;;;5098625;28;20377;-79
2022/07/30 05:48:20;;;;;;;1.92;0.70;;;17.20;55.70;;;;;;5097348;28;20377;-80
2022/07/30 05:50:47;;;;;;;2.08;0.70;;;16.80;57.00;;;;;;5098601;28;20376;-81
2022/07/30 05:53:14;;;;;;;1.00;0.73;;;16.50;57.90;;;;;;5095817;28;20392;-80
2022/07/30 05:55:41;;;;;;;2.50;0.60;;;16.30;58.20;;;;;;5094252;28;20360;-80
2022/07/30 05:58:08;;;;;;;2.95;0.80;;;16.10;58.80;;;;;;5093942;28;20396;-82
2022/07/30 06:00:35;;;;;;;2.42;0.70;;;15.90;59.40;;;;;;5094166;28;20365;-82
2022/07/30 06:03:03;;;;;;;1.20;0.60;;;15.70;60.40;;;;;;5093823;28;20566;-84
2022/07/30 06:05:31;;;;;;;1.63;0.75;;;15.60;61.30;;;;;;5093736;28;20770;-83
2022/07/30 06:07:59;;;;;;;3.35;0.80;;;15.40;61.10;;;;;;5093680;28;20373;-81
2022/07/30 06:10:26;;;;;;;1.77;0.77;;;15.30;62.00;;;;;;5093534;28;20443;-82
2022/07/30 06:12:53;;;;;;;2.27;0.90;;;15.20;62.50;;;;;;5093584;28;20442;-86
2022/07/30 06:15:20;;;;;;;2.55;0.90;;;15.20;62.70;;;;;;5093712;28;20364;-80
2022/07/30 06:17:48;;;;;;;1.67;0.80;;;15.10;62.80;;;;;;5093413;28;20484;-81
2022/07/30 06:20:17;;;;;;;2.90;0.68;;;15.00;63.60;;;;;;5093270;28;20399;-83
2022/07/30 06:22:44;;;;;;;2.38;1.00;;;14.90;63.30;;;;;;5094104;28;20377;-84
2022/07/30 06:25:12;;;;;;;1.33;0.90;;;14.80;63.70;;;;;;5093386;28;20875;-84
2022/07/30 06:27:39;;;;;;;2.03;0.90;;;14.70;64.60;;;;;;5093080;28;20463;-79
2022/07/30 06:30:10;;;;;;;2.88;0.98;;;14.60;64.90;;;;;;5093331;28;20862;-80
2022/07/30 06:32:38;;;;;;;1.45;0.80;;;14.60;65.40;;;;;;5093181;28;20411;-78
2022/07/30 06:35:05;;;;;;;2.80;1.00;;;14.50;66.10;;;;;;5092937;28;20404;-81
2022/07/30 06:37:32;;;;;;;2.63;1.10;;;14.40;66.60;;;;;;5092893;28;20369;-80
2022/07/30 06:39:59;;;;;;;4.30;1.67;;;14.30;66.60;;;;;;5092588;28;20937;-82
2022/07/30 06:42:27;;;;;;;3.80;1.27;;;14.20;67.20;;;;;;5092667;28;20879;-83
2022/07/30 06:44:54;;;;;;;2.65;1.70;;;14.20;67.90;;;;;;5093720;28;20798;-82
2022/07/30 06:47:28;;;;;;;2.85;1.40;;;14.00;68.30;;;;;;5093176;28;20447;-81
2022/07/30 06:49:56;;;;;;;5.00;2.88;;;14.00;68.10;;;;;;5092988;28;20380;-81
2022/07/30 06:52:24;;;;;;;4.03;2.00;;;13.80;68.80;;;;;;5092851;28;20396;-80
2022/07/30 06:54:51;;;;;;;5.65;2.88;;;13.70;69.70;;;;;;5093066;28;20456;-80
2022/07/30 06:57:19;;;;;;;3.95;2.67;;;13.60;70.30;;;;;;5092777;28;20890;-82
2022/07/30 06:59:46;;;;;;;2.50;1.33;;;13.40;70.70;;;;;;5093369;28;20379;-83
2022/07/30 07:02:13;;;;;;;5.73;3.57;;;13.30;71.70;;;;;;5092855;28;20380;-80
2022/07/30 07:04:40;;;;;;;2.22;1.40;;;13.10;72.50;;;;;;5093032;28;20372;-82
2022/07/30 07:07:07;;;;;;;4.20;1.52;;;13.00;74.00;;;;;;5092777;28;20384;-82
2022/07/30 07:09:34;;;;;;;3.83;1.20;;;12.90;75.20;;;;;;5092619;28;20380;-80
2022/07/30 07:12:02;;;;;;;3.20;1.47;;;12.70;76.70;;;;;;5092829;28;20388;-80
2022/07/30 07:14:29;;;;;;;3.10;1.30;;;12.60;77.30;;;;;;5092548;28;20541;-82
2022/07/30 07:16:56;;;;;;;5.25;1.60;;;12.40;78.10;;;;;;5092748;28;20376;-80
2022/07/30 07:19:23;;;;;;;3.90;2.08;;;12.30;79.70;;;;;;5092500;28;20976;-80
2022/07/30 07:21:50;;;;;;;3.90;1.70;;;12.10;81.50;;;;;;5092467;28;20454;-80
2022/07/30 07:24:17;;;;;;;3.25;1.63;;;12.00;83.10;;;;;;5092277;28;20376;-81
2022/07/30 07:26:44;;;;;;;4.47;1.67;;;11.80;84.70;;;;;;5092217;28;20709;-81
2022/07/30 07:29:12;;;;;;;3.78;1.58;;;11.70;86.30;;;;;;5092133;28;20380;-81
2022/07/30 07:31:39;;;;;;;3.03;1.63;;;11.50;88.70;;;;;;5092101;28;20372;-80
2022/07/30 07:34:06;;;;;;;5.65;2.00;;;11.40;90.20;;;;;;5092365;28;20414;-80
2022/07/30 07:36:35;;;;;;;4.30;2.47;;;11.20;91.30;;;;;;5092320;28;20380;-80
2022/07/30 07:39:08;;;;;;;4.85;2.83;;;11.10;92.30;;;;;;5073965;28;20740;-80
2022/07/30 07:41:37;;;;;;;5.80;2.00;;;10.90;93.40;;;;;;5092187;28;20360;-80
2022/07/30 07:44:07;;;;;;;6.73;4.00;;;10.80;94.70;;;;;;5092175;28;20393;-81
2022/07/30 07:46:34;;;;;;;4.20;2.35;;;10.70;95.30;;;;;;5092236;28;20383;-80
2022/07/30 07:49:02;;;;;;;4.90;2.37;;;10.60;96.40;;;;;;5092191;28;20550;-80
2022/07/30 07:51:29;;;;;;;5.93;2.83;;;10.50;97.00;;;;;;5093161;28;20372;-81
2022/07/30 07:53:56;;;;;;;7.97;3.42;;;10.50;97.80;;;;;;5096192;28;20405;-80
2022/07/30 07:56:24;;;;;;;6.75;3.97;;;10.40;98.30;;;;;;5096228;28;20372;-81
2022/07/30 07:58:52;;;;;;;6.22;3.25;;;10.20;99.10;;;;;;5094895;28;20471;-82
2022/07/30 08:01:20;;;;;;;6.50;3.78;;;10.30;99.60;;;;;;5096342;28;20369;-81
2022/07/30 08:03:48;;;;;;;6.35;3.40;;;10.20;99.90;;;;;;5096287;28;20418;-80
2022/07/30 08:06:15;;;;;;;6.23;3.60;;;10.20;99.90;;;;;;5096205;28;20784;-80
2022/07/30 08:08:42;;;;;;;7.38;3.80;;;10.10;99.90;;;;;;5095961;28;20376;-80
2022/07/30 08:11:09;;;;;;;6.50;3.97;;;10.10;99.90;;;;;;5096158;28;20863;-80
2022/07/30 08:13:36;;;;;;;8.73;5.57;;;10.10;99.90;;;;;;5096033;28;20432;-80
2022/07/30 08:16:04;;;;;;;11.30;8.07;;;10.00;99.90;;;;;;5095861;28;20848;-80
2022/07/30 08:18:31;;;;;;;21.37;15.97;;;9.90;99.90;;;;;;5095870;28;20383;-80
2022/07/30 08:20:58;;;;;;;37.42;28.30;;;9.90;99.90;;;;;;5095698;28;20364;-81
2022/07/30 08:23:25;;;;;;;42.72;32.60;;;9.80;99.90;;;;;;5095803;28;20379;-80
2022/07/30 08:25:52;;;;;;;149.85;114.53;;;9.70;99.90;;;;;;5095701;28;20376;-80
2022/07/30 08:28:19;;;;;;;128.53;96.70;;;9.70;99.90;;;;;;5095470;28;20463;-80
2022/07/30 08:30:46;;;;;;;185.82;127.15;;;9.60;99.90;;;;;;5095905;28;20459;-79
2022/07/30 08:33:13;;;;;;;99.20;74.88;;;9.60;99.90;;;;;;5095501;28;20450;-80
2022/07/30 08:35:40;;;;;;;113.55;77.28;;;9.50;99.90;;;;;;5095557;28;20369;-80
2022/07/30 08:38:08;;;;;;;115.22;80.53;;;9.50;99.90;;;;;;5095489;28;20373;-79
2022/07/30 08:40:36;;;;;;;108.60;69.03;;;9.40;99.90;;;;;;5095310;28;20766;-80
2022/07/30 08:43:05;;;;;;;139.18;94.43;;;9.30;99.90;;;;;;5095146;28;20389;-80
2022/07/30 08:45:33;;;;;;;192.00;117.50;;;9.30;99.90;;;;;;5095142;28;20415;-80
2022/07/30 08:48:06;;;;;;;297.38;167.50;;;9.30;99.90;;;;;;5095211;28;20443;-80
2022/07/30 08:50:34;;;;;;;247.85;117.90;;;9.20;99.90;;;;;;5095083;28;20371;-80
2022/07/30 08:53:02;;;;;;;425.88;208.95;;;9.20;99.90;;;;;;5095007;28;20407;-81
2022/07/30 08:55:29;;;;;;;351.80;172.02;;;9.10;99.90;;;;;;5095128;28;20393;-81
2022/07/30 08:57:57;;;;;;;301.53;156.60;;;9.10;99.90;;;;;;5095258;28;20391;-79
2022/07/30 09:00:25;;;;;;;184.90;101.18;;;9.10;99.90;;;;;;5094991;28;20368;-80
2022/07/30 09:02:52;;;;;;;235.57;123.28;;;9.10;99.90;;;;;;5094221;28;20466;-79
2022/07/30 09:05:20;;;;;;;98.47;52.05;;;9.10;99.90;;;;;;5094833;28;20388;-84
2022/07/30 09:07:47;;;;;;;162.68;88.18;;;9.00;99.90;;;;;;5094846;28;20376;-79
2022/07/30 09:10:16;;;;;;;231.32;109.60;;;9.00;99.90;;;;;;5095207;28;20451;-80
2022/07/30 09:12:44;;;;;;;158.07;75.88;;;8.90;99.90;;;;;;5094845;28;20400;-79
2022/07/30 09:15:15;;;;;;;142.02;71.40;;;8.90;99.90;;;;;;5094770;28;20371;-79
2022/07/30 09:18:01;;;;;;;254.63;130.10;;;8.80;99.90;;;;;;5095037;28;20938;-79
2022/07/30 09:20:34;;;;;;;247.25;126.50;;;8.70;99.90;;;;;;5094680;28;20379;-79
2022/07/30 09:23:05;;;;;;;112.05;57.03;;;8.70;99.90;;;;;;5094748;28;20372;-80
2022/07/30 09:25:35;;;;;;;125.40;61.70;;;8.60;99.90;;;;;;5094574;28;20349;-80
2022/07/30 09:28:04;;;;;;;194.35;94.13;;;8.60;99.90;;;;;;5094535;28;20377;-78
2022/07/30 09:30:52;;;;;;;368.25;177.80;;;8.60;99.90;;;;;;5094398;28;20365;-80
2022/07/30 09:33:35;;;;;;;220.18;109.88;;;8.50;99.90;;;;;;5094253;28;20403;-79
2022/07/30 09:36:03;;;;;;;90.70;47.92;;;8.50;99.90;;;;;;5094285;28;20368;-81
2022/07/30 09:38:46;;;;;;;151.75;83.50;;;8.50;99.90;;;;;;5094219;28;20430;-80
2022/07/30 09:41:15;;;;;;;204.95;102.75;;;8.50;99.90;;;;;;5094149;28;20833;-77
2022/07/30 09:43:47;;;;;;;263.70;110.00;;;8.50;99.90;;;;;;5093761;28;20386;-80
2022/07/30 09:46:15;;;;;;;235.70;102.97;;;8.50;99.90;;;;;;5094211;28;20357;-78
2022/07/30 09:48:44;;;;;;;373.00;153.43;;;8.50;99.90;;;;;;5093969;28;20778;-80
2022/07/30 09:51:12;;;;;;;339.10;147.18;;;8.40;99.90;;;;;;5093815;28;20372;-79
2022/07/30 09:53:59;;;;;;;113.03;49.20;;;8.40;99.90;;;;;;5093717;28;20484;-79
2022/07/30 09:56:28;;;;;;;112.82;51.50;;;8.30;99.90;;;;;;5094138;28;20720;-79
2022/07/30 09:58:57;;;;;;;66.22;29.60;;;8.20;99.90;;;;;;5093787;28;20387;-80
2022/07/30 10:01:24;;;;;;;54.38;27.15;;;8.10;99.90;;;;;;5093907;28;20437;-81
2022/07/30 10:03:51;;;;;;;45.20;22.85;;;8.10;99.90;;;;;;5094196;28;20870;-80
2022/07/30 10:06:31;;;;;;;47.53;31.42;;;8.10;99.90;;;;;;5093771;28;20372;-82
2022/07/30 10:08:58;;;;;;;57.75;34.83;;;8.00;99.90;;;;;;5093739;28;20375;-80
2022/07/30 10:11:27;;;;;;;74.18;41.75;;;8.00;99.90;;;;;;5093989;28;20368;-81
2022/07/30 10:13:57;;;;;;;78.05;40.53;;;8.00;99.90;;;;;;5092298;28;20401;-80
2022/07/30 10:16:29;;;;;;;66.88;34.60;;;8.00;99.90;;;;;;5092556;28;20376;-80
2022/07/30 10:19:00;;;;;;;62.55;32.85;;;8.10;99.90;;;;;;5093433;28;20461;-79
2022/07/30 10:21:28;;;;;;;50.38;26.42;;;8.10;99.90;;;;;;5093492;28;20368;-80
2022/07/30 10:23:55;;;;;;;53.65;31.27;;;8.10;99.90;;;;;;5092131;28;20740;-79
2022/07/30 10:26:23;;;;;;;42.50;24.85;;;8.10;99.90;;;;;;5093409;28;20482;-80
2022/07/30 10:28:51;;;;;;;56.47;33.30;;;8.00;99.90;;;;;;5093188;28;20365;-81
2022/07/30 10:31:19;;;;;;;52.00;29.88;;;8.00;99.90;;;;;;5093181;28;20377;-78
2022/07/30 10:33:46;;;;;;;47.42;28.90;;;8.00;99.90;;;;;;5093227;28;20803;-83
2022/07/30 10:36:13;;;;;;;39.88;25.45;;;7.90;99.90;;;;;;5091721;28;20421;-79
2022/07/30 10:38:44;;;;;;;35.80;22.13;;;7.90;99.90;;;;;;5093449;28;20381;-80
2022/07/30 10:41:32;;;;;;;29.17;18.97;;;7.80;99.90;;;;;;5093044;28;20957;-79
2022/07/30 10:44:23;;;;;;;37.17;23.10;;;7.70;99.90;;;;;;5010879;28;20403;-79
2022/07/30 10:47:05;;;;;;;42.15;26.02;;;7.70;99.90;;;;;;5011223;28;20389;-80
2022/07/30 10:49:32;;;;;;;42.92;26.67;;;7.60;99.90;;;;;;5011083;28;20749;-80
2022/07/30 10:51:59;;;;;;;60.72;36.42;;;7.60;99.90;;;;;;5010828;28;20402;-78
2022/07/30 10:54:36;;;;;;;55.10;32.23;;;7.60;99.90;;;;;;5010888;28;20451;-78
2022/07/30 10:57:21;;;;;;;42.22;25.13;;;7.60;99.90;;;;;;5010767;28;20421;-79
2022/07/30 11:00:08;;;;;;;32.78;21.42;;;7.50;99.90;;;;;;5011231;28;20786;-78
2022/07/30 11:02:36;;;;;;;34.42;20.33;;;7.50;99.90;;;;;;5010917;28;20380;-78
2022/07/30 11:05:22;;;;;;;42.33;26.45;;;7.50;99.90;;;;;;5010831;28;20379;-79
2022/07/30 11:07:49;;;;;;;39.88;22.88;;;7.60;99.90;;;;;;5011759;28;20383;-79
2022/07/30 11:10:39;;;;;;;26.88;15.85;;;7.50;99.90;;;;;;5010853;28;20438;-79
2022/07/30 11:13:07;;;;;;;24.65;15.52;;;7.40;99.90;;;;;;5010455;28;20410;-78
2022/07/30 11:15:55;;;;;;;23.65;13.63;;;7.30;99.90;;;;;;5010844;28;20915;-79
2022/07/30 11:18:24;;;;;;;19.60;10.80;;;7.20;99.90;;;;;;5010521;28;20386;-81
2022/07/30 11:21:15;;;;;;;21.95;13.52;;;7.20;99.90;;;;;;5044588;28;20425;-80
2022/07/30 11:23:44;;;;;;;21.35;12.88;;;7.20;99.90;;;;;;5092721;28;20383;-79
2022/07/30 11:26:30;;;;;;;17.80;11.98;;;7.10;99.90;;;;;;5092048;28;20365;-80
2022/07/30 11:28:57;;;;;;;21.42;12.27;;;7.00;99.90;;;;;;5092690;28;20372;-78
2022/07/30 11:31:34;;;;;;;21.00;12.50;;;7.00;99.90;;;;;;5092559;28;20373;-78
2022/07/30 11:34:19;;;;;;;18.00;11.80;;;6.90;99.90;;;;;;5092364;28;20457;-80
2022/07/30 11:37:16;;;;;;;19.40;12.30;;;6.90;99.90;;;;;;5092380;28;20373;-78
2022/07/30 11:40:04;;;;;;;21.25;14.07;;;6.90;99.90;;;;;;5092234;28;20724;-79
2022/07/30 11:42:52;;;;;;;23.47;13.83;;;6.80;99.90;;;;;;5092177;28;20397;-80
2022/07/30 11:45:25;;;;;;;22.52;14.40;;;6.70;99.90;;;;;;5091374;28;20361;-79
2022/07/30 11:47:55;;;;;;;21.65;15.20;;;6.70;99.90;;;;;;5092430;28;20371;-78
2022/07/30 11:50:25;;;;;;;22.55;14.20;;;6.60;99.90;;;;;;5092400;28;20368;-79
2022/07/30 11:52:55;;;;;;;23.52;16.02;;;6.60;99.90;;;;;;5092190;28;20396;-78
2022/07/30 11:55:24;;;;;;;20.75;13.02;;;6.60;99.90;;;;;;5092190;28;20365;-79
2022/07/30 11:57:51;;;;;;;21.65;14.40;;;6.60;99.90;;;;;;5092387;28;20375;-79
2022/07/30 12:00:18;;;;;;;18.58;13.13;;;6.50;99.90;;;;;;5092291;28;20728;-79
2022/07/30 12:02:47;;;;;;;21.08;13.57;;;6.50;99.90;;;;;;5092160;28;20434;-79
2022/07/30 12:05:15;;;;;;;20.08;13.48;;;6.50;99.90;;;;;;5092237;28;20375;-80
2022/07/30 12:07:43;;;;;;;17.27;13.23;;;6.50;99.90;;;;;;5092041;28;20430;-81
2022/07/30 12:10:18;;;;;;;18.67;12.77;;;6.50;99.90;;;;;;5092048;28;20408;-80
2022/07/30 12:12:45;;;;;;;19.08;13.77;;;6.50;99.90;;;;;;5092155;28;20380;-80
2022/07/30 12:15:32;;;;;;;21.63;14.25;;;6.40;99.90;;;;;;5091995;28;20451;-80
2022/07/30 12:18:02;;;;;;;18.65;13.57;;;6.50;99.90;;;;;;5091929;28;20455;-80
2022/07/30 12:20:30;;;;;;;20.27;13.77;;;6.40;99.90;;;;;;5091898;28;20818;-80
2022/07/30 12:22:57;;;;;;;21.63;15.07;;;6.50;99.90;;;;;;5092164;28;20404;-81
2022/07/30 12:25:25;;;;;;;17.42;13.35;;;6.50;99.90;;;;;;5092008;28;20411;-78
2022/07/30 12:27:52;;;;;;;18.47;13.60;;;6.50;99.90;;;;;;5092025;28;20371;-80
2022/07/30 12:30:22;;;;;;;16.80;12.55;;;6.60;99.90;;;;;;5091948;28;20364;-81
2022/07/30 12:32:50;;;;;;;17.88;12.30;;;6.70;99.90;;;;;;5091850;28;20898;-80
2022/07/30 12:35:17;;;;;;;16.90;12.13;;;6.70;99.90;;;;;;5056775;28;20380;-80
2022/07/30 12:38:03;;;;;;;16.52;11.88;;;6.70;99.90;;;;;;5092211;28;20437;-79
2022/07/30 12:40:30;;;;;;;15.20;11.95;;;6.60;99.90;;;;;;5095922;28;20361;-79
2022/07/30 12:42:57;;;;;;;19.13;14.23;;;6.60;99.90;;;;;;5092919;28;20415;-80
2022/07/30 12:45:32;;;;;;;16.60;12.07;;;6.50;99.90;;;;;;5095588;28;20365;-80
2022/07/30 12:48:00;;;;;;;16.10;12.07;;;6.40;99.90;;;;;;5095389;28;20427;-79
2022/07/30 12:50:27;;;;;;;15.63;11.98;;;6.40;99.90;;;;;;5095455;28;20859;-79
2022/07/30 12:52:55;;;;;;;16.15;11.63;;;6.30;99.90;;;;;;5095648;28;20858;-80
2022/07/30 12:55:31;;;;;;;17.83;12.63;;;6.20;99.90;;;;;;5095684;28;20860;-79